createdAt,value
2023-03-08T00:01:35.493Z,100.00
2023-03-08T00:04:05.182Z,100.00
2023-03-08T00:06:33.550Z,100.00
2023-03-08T00:09:06.562Z,100.00
2023-03-08T00:11:34.570Z,100.00
2023-03-08T00:14:03.631Z,100.00
2023-03-08T00:16:31.866Z,100.00
2023-03-08T00:19:00.985Z,100.00
2023-03-08T00:21:33.054Z,100.00
2023-03-08T00:24:04.560Z,100.00
2023-03-08T00:26:41.512Z,100.00
2023-03-08T00:29:09.874Z,100.00
2023-03-08T00:31:38.790Z,100.00
2023-03-08T00:34:07.376Z,100.00
2023-03-08T00:36:39.766Z,100.00
2023-03-08T00:39:07.906Z,100.00
2023-03-08T00:41:35.812Z,100.00
2023-03-08T00:44:06.881Z,100.00
2023-03-08T00:46:35.118Z,100.00
2023-03-08T00:49:04.711Z,100.00
2023-03-08T00:51:33.246Z,100.00
2023-03-08T00:54:01.448Z,100.00
2023-03-08T00:56:29.471Z,100.00
2023-03-08T00:58:59.970Z,100.00
2023-03-08T01:01:27.857Z,100.00
2023-03-08T01:03:56.509Z,100.00
2023-03-08T01:06:25.633Z,100.00
2023-03-08T01:08:55.282Z,100.00
2023-03-08T01:11:27.583Z,100.00
2023-03-08T01:13:56.293Z,100.00
2023-03-08T01:16:27.466Z,100.00
2023-03-08T01:19:00.059Z,100.00
2023-03-08T01:21:29.755Z,100.00
2023-03-08T01:23:58.146Z,100.00
2023-03-08T01:26:34.139Z,100.00
2023-03-08T01:29:02.655Z,100.00
2023-03-08T01:31:32.068Z,100.00
2023-03-08T01:34:01.287Z,100.00
2023-03-08T01:36:29.774Z,100.00
2023-03-08T01:39:01.870Z,100.00
2023-03-08T01:41:32.091Z,100.00
2023-03-08T01:44:04.411Z,100.00
2023-03-08T01:46:36.868Z,100.00
2023-03-08T01:49:08.984Z,100.00
2023-03-08T01:52:03.085Z,100.00
2023-03-08T01:54:40.595Z,100.00
2023-03-08T01:57:24.841Z,100.00
2023-03-08T02:00:00.401Z,100.00
2023-03-08T02:02:35.115Z,100.00
2023-03-08T02:05:05.415Z,100.00
2023-03-08T02:07:35.024Z,100.00
2023-03-08T02:10:03.742Z,100.00
2023-03-08T02:13:00.763Z,100.00
2023-03-08T02:15:30.547Z,100.00
2023-03-08T02:17:59.425Z,100.00
2023-03-08T02:20:31.576Z,100.00
2023-03-08T02:23:14.291Z,100.00
2023-03-08T02:25:50.302Z,100.00
2023-03-08T02:28:21.835Z,100.00
2023-03-08T02:30:50.885Z,100.00
2023-03-08T02:33:20.780Z,100.00
2023-03-08T02:35:48.973Z,100.00
2023-03-08T02:38:19.833Z,100.00
2023-03-08T02:40:57.506Z,100.00
2023-03-08T02:43:25.772Z,100.00
2023-03-08T02:45:57.098Z,100.00
2023-03-08T02:48:25.140Z,100.00
2023-03-08T02:50:53.272Z,100.00
2023-03-08T02:53:24.070Z,100.00
2023-03-08T02:55:53.101Z,100.00
2023-03-08T02:58:21.032Z,100.00
2023-03-08T03:00:49.293Z,100.00
2023-03-08T03:03:20.112Z,100.00
2023-03-08T03:05:47.943Z,100.00
2023-03-08T03:08:16.945Z,100.00
2023-03-08T03:10:46.313Z,100.00
2023-03-08T03:13:16.723Z,100.00
2023-03-08T03:15:47.178Z,100.00
2023-03-08T03:18:17.704Z,100.00
2023-03-08T03:20:46.056Z,100.00
2023-03-08T03:23:19.408Z,100.00
2023-03-08T03:25:52.074Z,100.00
2023-03-08T03:28:21.021Z,100.00
2023-03-08T03:30:49.790Z,100.00
2023-03-08T03:33:20.055Z,100.00
2023-03-08T03:35:50.845Z,100.00
2023-03-08T03:38:19.098Z,100.00
2023-03-08T03:40:47.141Z,100.00
2023-03-08T03:43:15.327Z,100.00
2023-03-08T03:45:43.706Z,100.00
2023-03-08T03:48:12.017Z,100.00
2023-03-08T03:50:40.032Z,100.00
2023-03-08T03:53:08.143Z,100.00
2023-03-08T03:55:36.760Z,100.00
2023-03-08T03:58:10.427Z,100.00
2023-03-08T04:01:18.376Z,100.00
2023-03-08T04:03:46.644Z,100.00
2023-03-08T04:10:39.576Z,100.00
2023-03-08T04:13:07.734Z,100.00
2023-03-08T04:15:39.412Z,100.00
2023-03-08T04:18:09.024Z,100.00
2023-03-08T04:20:37.182Z,100.00
2023-03-08T04:23:25.062Z,100.00
2023-03-08T04:25:55.104Z,100.00
2023-03-08T04:28:26.936Z,100.00
2023-03-08T04:30:55.734Z,100.00
2023-03-08T04:33:24.353Z,100.00
2023-03-08T04:35:54.163Z,100.00
2023-03-08T04:38:23.249Z,100.00
2023-03-08T04:41:10.652Z,100.00
2023-03-08T04:43:49.556Z,100.00
2023-03-08T04:46:20.230Z,100.00
2023-03-08T04:48:48.388Z,100.00
2023-03-08T04:51:17.377Z,100.00
2023-03-08T04:53:45.757Z,100.00
2023-03-08T04:56:15.468Z,100.00
2023-03-08T04:58:44.276Z,100.00
2023-03-08T05:01:25.456Z,100.00
2023-03-08T05:03:54.290Z,100.00
2023-03-08T05:06:25.815Z,100.00
2023-03-08T05:08:55.408Z,100.00
2023-03-08T05:11:26.243Z,100.00
2023-03-08T05:13:55.801Z,100.00
2023-03-08T05:16:24.635Z,100.00
2023-03-08T05:18:52.746Z,100.00
2023-03-08T05:21:22.155Z,100.00
2023-03-08T05:23:50.253Z,100.00
2023-03-08T05:26:21.847Z,100.00
2023-03-08T05:28:50.158Z,100.00
2023-03-08T05:31:20.815Z,100.00
2023-03-08T05:33:51.341Z,100.00
2023-03-08T05:36:20.324Z,100.00
2023-03-08T05:38:48.569Z,100.00
2023-03-08T05:41:17.188Z,100.00
2023-03-08T05:43:46.613Z,100.00
2023-03-08T05:46:16.922Z,100.00
2023-03-08T05:48:45.124Z,100.00
2023-03-08T05:51:16.597Z,100.00
2023-03-08T05:53:45.259Z,100.00
2023-03-08T05:56:17.560Z,100.00
2023-03-08T05:58:48.450Z,100.00
2023-03-08T06:01:24.298Z,100.00
2023-03-08T06:03:58.339Z,100.00
2023-03-08T06:06:27.389Z,100.00
2023-03-08T06:08:56.832Z,100.00
2023-03-08T06:11:26.320Z,100.00
2023-03-08T06:13:54.783Z,100.00
2023-03-08T06:16:22.679Z,100.00
2023-03-08T06:18:50.678Z,100.00
2023-03-08T06:21:21.486Z,100.00
2023-03-08T06:23:50.378Z,100.00
2023-03-08T06:26:19.701Z,100.00
2023-03-08T06:28:47.894Z,100.00
2023-03-08T06:31:21.196Z,100.00
2023-03-08T06:33:49.972Z,100.00
2023-03-08T06:36:21.011Z,100.00
2023-03-08T06:38:50.065Z,100.00
2023-03-08T06:41:20.177Z,100.00
2023-03-08T06:43:51.504Z,100.00
2023-03-08T06:46:20.590Z,100.00
2023-03-08T06:48:49.602Z,100.00
2023-03-08T06:51:18.625Z,100.00
2023-03-08T06:53:47.313Z,100.00
2023-03-08T06:56:17.231Z,100.00
2023-03-08T06:58:45.105Z,100.00
2023-03-08T07:01:13.509Z,100.00
2023-03-08T07:03:42.021Z,100.00
2023-03-08T07:06:10.898Z,100.00
2023-03-08T07:08:42.364Z,100.00
2023-03-08T07:11:10.901Z,100.00
2023-03-08T07:13:40.257Z,100.00
2023-03-08T07:16:12.882Z,100.00
2023-03-08T07:18:41.858Z,100.00
2023-03-08T07:21:13.161Z,100.00
2023-03-08T07:23:41.961Z,100.00
2023-03-08T07:26:11.011Z,100.00
2023-03-08T07:28:43.949Z,100.00
2023-03-08T07:31:13.425Z,100.00
2023-03-08T07:33:42.896Z,100.00
2023-03-08T07:36:12.794Z,100.00
2023-03-08T07:38:41.460Z,100.00
2023-03-08T07:41:09.705Z,100.00
2023-03-08T07:43:39.474Z,100.00
2023-03-08T07:46:07.281Z,100.00
2023-03-08T07:48:36.168Z,100.00
2023-03-08T07:51:09.909Z,100.00
2023-03-08T07:53:40.298Z,100.00
2023-03-08T07:56:08.541Z,100.00
2023-03-08T07:58:42.231Z,100.00
2023-03-08T08:01:17.903Z,100.00
2023-03-08T08:03:46.162Z,100.00
2023-03-08T08:06:14.896Z,100.00
2023-03-08T08:08:43.536Z,100.00
2023-03-08T08:11:13.800Z,100.00
2023-03-08T08:13:44.553Z,100.00
2023-03-08T08:16:15.678Z,100.00
2023-03-08T08:18:44.598Z,100.00
2023-03-08T08:21:15.437Z,100.00
2023-03-08T08:23:45.471Z,100.00
2023-03-08T08:26:19.623Z,100.00
2023-03-08T08:28:52.564Z,100.00
2023-03-08T08:31:31.311Z,100.00
2023-03-08T08:34:02.769Z,100.00
2023-03-08T08:36:33.428Z,100.00
2023-03-08T08:39:05.180Z,100.00
2023-03-08T08:41:33.857Z,100.00
2023-03-08T08:44:04.964Z,100.00
2023-03-08T08:46:37.757Z,100.00
2023-03-08T08:49:06.457Z,100.00
2023-03-08T08:51:35.475Z,100.00
2023-03-08T08:54:04.182Z,100.00
2023-03-08T08:56:35.279Z,100.00
2023-03-08T08:59:03.978Z,100.00
2023-03-08T09:01:34.680Z,100.00
2023-03-08T09:04:20.193Z,100.00
2023-03-08T09:06:48.255Z,100.00
2023-03-08T09:09:17.846Z,100.00
2023-03-08T09:11:55.047Z,100.00
2023-03-08T09:14:24.844Z,100.00
2023-03-08T09:16:53.323Z,100.00
2023-03-08T09:19:21.389Z,100.00
2023-03-08T09:21:50.002Z,100.00
2023-03-08T09:24:18.114Z,100.00
2023-03-08T09:26:49.768Z,100.00
2023-03-08T09:29:18.861Z,100.00
2023-03-08T09:31:46.947Z,100.00
2023-03-08T09:34:16.781Z,100.00
2023-03-08T09:36:46.958Z,100.00
2023-03-08T09:39:21.244Z,100.00
2023-03-08T09:41:55.094Z,100.00
2023-03-08T09:44:49.841Z,100.00
2023-03-08T09:47:29.739Z,100.00
2023-03-08T09:50:16.530Z,100.00
2023-03-08T09:53:04.125Z,100.00
2023-03-08T09:55:37.057Z,100.00
2023-03-08T09:58:15.153Z,100.00
2023-03-08T10:00:44.697Z,100.00
2023-03-08T10:03:12.839Z,100.00
2023-03-08T10:05:47.705Z,100.00
2023-03-08T10:08:26.244Z,100.00
2023-03-08T10:11:07.876Z,100.00
2023-03-08T10:13:39.628Z,100.00
2023-03-08T10:16:17.230Z,100.00
2023-03-08T10:19:09.463Z,100.00
2023-03-08T10:21:39.629Z,100.00
2023-03-08T10:24:10.257Z,100.00
2023-03-08T10:26:38.772Z,100.00
2023-03-08T10:29:06.912Z,100.00
2023-03-08T10:31:35.017Z,100.00
2023-03-08T10:34:15.954Z,100.00
2023-03-08T10:36:57.899Z,100.00
2023-03-08T10:39:25.778Z,100.00
2023-03-08T10:41:57.795Z,100.00
2023-03-08T10:44:43.305Z,100.00
2023-03-08T10:47:31.268Z,100.00
2023-03-08T10:50:21.596Z,100.00
2023-03-08T10:52:51.641Z,100.00
2023-03-08T10:55:24.870Z,100.00
2023-03-08T10:58:02.301Z,100.00
2023-03-08T11:00:43.605Z,100.00
2023-03-08T11:03:22.057Z,100.00
2023-03-08T11:05:57.875Z,100.00
2023-03-08T11:08:37.830Z,100.00
2023-03-08T11:11:14.155Z,100.00
2023-03-08T11:13:47.928Z,100.00
2023-03-08T11:16:40.328Z,100.00
2023-03-08T11:19:29.541Z,100.00
2023-03-08T11:22:36.090Z,100.00
2023-03-08T11:25:10.001Z,100.00
2023-03-08T11:27:58.090Z,100.00
2023-03-08T11:30:32.264Z,100.00
2023-03-08T11:33:17.125Z,100.00
2023-03-08T11:35:49.105Z,100.00
2023-03-08T11:38:26.218Z,100.00
2023-03-08T11:41:09.431Z,100.00
2023-03-08T11:43:56.316Z,100.00
2023-03-08T11:46:31.926Z,100.00
2023-03-08T11:49:15.859Z,100.00
2023-03-08T11:52:28.936Z,100.00
2023-03-08T11:55:25.330Z,100.00
2023-03-08T11:57:58.920Z,100.00
2023-03-08T12:00:44.091Z,100.00
2023-03-08T12:03:20.904Z,100.00
2023-03-08T12:05:56.170Z,100.00
2023-03-08T12:08:29.879Z,100.00
2023-03-08T12:11:03.682Z,100.00
2023-03-08T12:13:39.650Z,100.00
2023-03-08T12:16:26.124Z,100.00
2023-03-08T12:19:07.058Z,100.00
2023-03-08T12:22:02.368Z,100.00
2023-03-08T12:24:52.974Z,100.00
2023-03-08T12:27:39.915Z,100.00
2023-03-08T12:30:10.533Z,100.00
2023-03-08T12:32:41.039Z,100.00
2023-03-08T12:35:34.212Z,100.00
2023-03-08T12:38:04.704Z,100.00
2023-03-08T12:40:38.884Z,100.00
2023-03-08T12:43:12.010Z,100.00
2023-03-08T12:45:44.966Z,100.00
2023-03-08T12:48:20.657Z,100.00
2023-03-08T12:51:12.149Z,100.00
2023-03-08T12:53:45.613Z,100.00
2023-03-08T12:56:18.075Z,100.00
2023-03-08T12:58:53.247Z,100.00
2023-03-08T13:01:33.890Z,100.00
2023-03-08T13:04:06.686Z,100.00
2023-03-08T13:06:53.910Z,100.00
2023-03-08T13:09:28.355Z,100.00
2023-03-08T13:12:16.618Z,100.00
2023-03-08T13:15:03.604Z,100.00
2023-03-08T13:17:33.152Z,100.00
2023-03-08T13:20:11.710Z,89.59
2023-03-08T13:23:06.509Z,89.01
2023-03-08T13:25:43.522Z,88.24
2023-03-08T13:28:18.395Z,86.28
2023-03-08T13:30:53.138Z,86.18
2023-03-08T13:33:28.405Z,85.95
2023-03-08T13:35:59.937Z,86.18
2023-03-08T13:38:31.134Z,86.53
2023-03-08T13:41:00.764Z,87.90
2023-03-08T13:43:34.066Z,88.70
2023-03-08T13:46:06.986Z,87.70
2023-03-08T13:48:38.229Z,87.58
2023-03-08T13:51:06.726Z,87.03
2023-03-08T13:53:37.076Z,86.76
2023-03-08T13:56:06.904Z,85.11
2023-03-08T13:58:40.444Z,84.41
2023-03-08T14:01:14.243Z,83.99
2023-03-08T14:03:44.102Z,84.79
2023-03-08T14:06:38.383Z,85.49
2023-03-08T14:09:07.624Z,86.17
2023-03-08T14:11:38.524Z,86.44
2023-03-08T14:14:18.403Z,87.06
2023-03-08T14:16:47.253Z,87.59
2023-03-08T14:19:34.778Z,88.40
2023-03-08T14:22:11.516Z,89.05
2023-03-08T14:24:41.589Z,90.04
2023-03-08T14:27:16.349Z,90.17
2023-03-08T14:29:46.303Z,90.38
2023-03-08T14:32:14.449Z,91.25
2023-03-08T14:34:48.637Z,91.96
2023-03-08T14:37:30.650Z,92.80
2023-03-08T14:40:26.751Z,94.17
2023-03-08T14:43:07.174Z,94.98
2023-03-08T14:45:40.869Z,96.19
2023-03-08T14:48:17.946Z,96.88
2023-03-08T14:51:05.018Z,98.10
2023-03-08T14:53:39.829Z,98.89
2023-03-08T14:56:17.594Z,99.78
2023-03-08T14:58:54.266Z,100.00
2023-03-08T15:01:33.250Z,100.00
2023-03-08T15:04:02.978Z,100.00
2023-03-08T15:06:34.633Z,100.00
2023-03-08T15:09:04.173Z,100.00
2023-03-08T15:11:33.221Z,100.00
2023-03-08T15:14:02.097Z,100.00
2023-03-08T15:16:31.511Z,100.00
2023-03-08T15:18:59.649Z,100.00
2023-03-08T15:21:29.920Z,100.00
2023-03-08T15:24:01.567Z,100.00
2023-03-08T15:26:31.966Z,100.00
2023-03-08T15:29:05.346Z,100.00
2023-03-08T15:31:33.724Z,100.00
2023-03-08T15:34:01.945Z,100.00
2023-03-08T15:36:34.958Z,100.00
2023-03-08T15:39:04.952Z,100.00
2023-03-08T15:41:35.302Z,100.00
2023-03-08T15:44:03.959Z,100.00
2023-03-08T15:46:32.582Z,100.00
2023-03-08T15:49:01.173Z,100.00
2023-03-08T15:51:32.508Z,100.00
2023-03-08T15:54:02.575Z,100.00
2023-03-08T15:56:30.739Z,100.00
2023-03-08T15:59:00.180Z,100.00
2023-03-08T16:01:30.359Z,100.00
2023-03-08T16:03:58.291Z,100.00
2023-03-08T16:06:27.379Z,100.00
2023-03-08T16:08:55.379Z,100.00
2023-03-08T16:11:23.769Z,100.00
2023-03-08T16:13:53.593Z,100.00
2023-03-08T16:16:24.477Z,100.00
2023-03-08T16:18:56.380Z,100.00
2023-03-08T16:21:24.960Z,100.00
2023-03-08T16:23:53.099Z,100.00
2023-03-08T16:26:22.280Z,100.00
2023-03-08T16:28:50.713Z,100.00
2023-03-08T16:31:21.247Z,100.00
2023-03-08T16:33:49.728Z,100.00
2023-03-08T16:36:17.857Z,100.00
2023-03-08T16:38:47.278Z,100.00
2023-03-08T16:41:16.193Z,100.00
2023-03-08T16:43:51.623Z,100.00
2023-03-08T16:46:22.743Z,100.00
2023-03-08T16:48:54.130Z,100.00
2023-03-08T16:51:25.298Z,100.00
2023-03-08T16:53:53.783Z,100.00
2023-03-08T16:56:28.051Z,100.00
2023-03-08T16:58:57.872Z,100.00
2023-03-08T17:01:27.314Z,100.00
2023-03-08T17:03:59.270Z,100.00
2023-03-08T17:06:29.794Z,100.00
2023-03-08T17:08:59.375Z,100.00
2023-03-08T17:11:30.424Z,100.00
2023-03-08T17:14:01.140Z,100.00
2023-03-08T17:16:35.922Z,100.00
2023-03-08T17:19:06.552Z,100.00
2023-03-08T17:21:39.169Z,100.00
2023-03-08T17:24:14.234Z,100.00
2023-03-08T17:26:46.648Z,100.00
2023-03-08T17:29:20.729Z,100.00
2023-03-08T17:31:51.993Z,100.00
2023-03-08T17:34:23.440Z,100.00
2023-03-08T17:36:52.246Z,100.00
2023-03-08T17:39:20.828Z,100.00
2023-03-08T17:41:48.698Z,100.00
2023-03-08T17:44:16.860Z,100.00
2023-03-08T17:46:44.928Z,100.00
2023-03-08T17:49:14.223Z,100.00
2023-03-08T17:51:42.876Z,100.00
2023-03-08T17:54:12.420Z,100.00
2023-03-08T17:56:43.943Z,100.00
2023-03-08T17:59:17.674Z,100.00
2023-03-08T18:01:45.897Z,100.00
2023-03-08T18:04:14.128Z,100.00
2023-03-08T18:06:44.067Z,100.00
2023-03-08T18:09:16.362Z,100.00
2023-03-08T18:11:48.611Z,100.00
2023-03-08T18:14:16.771Z,100.00
2023-03-08T18:16:45.400Z,100.00
2023-03-08T18:19:16.389Z,100.00
2023-03-08T18:21:46.776Z,100.00
2023-03-08T18:24:15.239Z,100.00
2023-03-08T18:26:45.065Z,100.00
2023-03-08T18:29:13.382Z,100.00
2023-03-08T18:31:42.316Z,100.00
2023-03-08T18:34:11.483Z,100.00
2023-03-08T18:36:39.383Z,100.00
2023-03-08T18:39:09.172Z,100.00
2023-03-08T18:41:37.183Z,100.00
2023-03-08T18:44:12.702Z,100.00
2023-03-08T18:46:41.145Z,100.00
2023-03-08T18:49:13.613Z,100.00
2023-03-08T18:51:43.138Z,100.00
2023-03-08T18:54:21.035Z,100.00
2023-03-08T18:56:51.655Z,100.00
2023-03-08T18:59:19.871Z,100.00
2023-03-08T19:01:50.386Z,100.00
2023-03-08T19:04:19.030Z,100.00
2023-03-08T19:06:47.618Z,100.00
2023-03-08T19:09:18.196Z,100.00
2023-03-08T19:11:48.341Z,100.00
2023-03-08T19:14:18.032Z,100.00
2023-03-08T19:16:47.000Z,100.00
2023-03-08T19:19:16.945Z,100.00
2023-03-08T19:21:49.034Z,100.00
2023-03-08T19:24:19.372Z,100.00
2023-03-08T19:26:50.688Z,100.00
2023-03-08T19:29:27.123Z,100.00
2023-03-08T19:32:03.170Z,100.00
2023-03-08T19:34:33.682Z,100.00
2023-03-08T19:37:02.913Z,100.00
2023-03-08T19:39:34.397Z,100.00
2023-03-08T19:42:11.319Z,100.00
2023-03-08T19:44:40.215Z,100.00
2023-03-08T19:47:10.270Z,100.00
2023-03-08T19:49:40.372Z,100.00
2023-03-08T19:52:08.667Z,100.00
2023-03-08T19:54:39.490Z,100.00
2023-03-08T19:57:11.006Z,100.00
2023-03-08T19:59:39.639Z,100.00
2023-03-08T20:02:09.133Z,100.00
2023-03-08T20:04:37.056Z,100.00
2023-03-08T20:07:05.235Z,100.00
2023-03-08T20:09:34.139Z,100.00
2023-03-08T20:12:06.200Z,100.00
2023-03-08T20:14:37.021Z,100.00
2023-03-08T20:17:05.456Z,100.00
2023-03-08T20:19:38.052Z,100.00
2023-03-08T20:22:07.266Z,100.00
2023-03-08T20:24:36.153Z,100.00
2023-03-08T20:27:05.627Z,100.00
2023-03-08T20:29:35.109Z,100.00
2023-03-08T20:32:03.568Z,100.00
2023-03-08T20:34:32.995Z,100.00
2023-03-08T20:37:00.869Z,100.00
2023-03-08T20:39:29.477Z,100.00
2023-03-08T20:41:59.072Z,100.00
2023-03-08T20:44:29.116Z,100.00
2023-03-08T20:46:57.339Z,100.00
2023-03-08T20:49:29.030Z,100.00
2023-03-08T20:51:58.869Z,100.00
2023-03-08T20:54:32.856Z,100.00
2023-03-08T20:57:01.432Z,100.00
2023-03-08T20:59:30.190Z,100.00
2023-03-08T21:01:58.900Z,100.00
2023-03-08T21:04:29.650Z,100.00
2023-03-08T21:07:02.242Z,100.00
2023-03-08T21:09:30.710Z,100.00
2023-03-08T21:12:00.366Z,100.00
2023-03-08T21:14:29.353Z,100.00
2023-03-08T21:16:58.191Z,100.00
2023-03-08T21:19:27.470Z,100.00
2023-03-08T21:21:55.857Z,100.00
2023-03-08T21:24:26.030Z,100.00
2023-03-08T21:26:54.382Z,100.00
2023-03-08T21:29:23.025Z,100.00
2023-03-08T21:31:52.713Z,100.00
2023-03-08T21:34:21.626Z,100.00
2023-03-08T21:36:50.261Z,100.00
2023-03-08T21:39:19.324Z,100.00
2023-03-08T21:41:48.809Z,100.00
2023-03-08T21:44:19.651Z,100.00
2023-03-08T21:46:49.058Z,100.00
2023-03-08T21:49:22.073Z,100.00
2023-03-08T21:51:50.713Z,100.00
2023-03-08T21:54:19.445Z,100.00
2023-03-08T21:56:48.033Z,100.00
2023-03-08T21:59:17.277Z,100.00
2023-03-08T22:01:48.610Z,100.00
2023-03-08T22:04:17.770Z,100.00
2023-03-08T22:06:46.643Z,100.00
2023-03-08T22:09:15.887Z,100.00
2023-03-08T22:11:44.281Z,100.00
2023-03-08T22:14:13.061Z,100.00
2023-03-08T22:16:41.464Z,100.00
2023-03-08T22:19:10.919Z,100.00
2023-03-08T22:21:39.614Z,100.00
2023-03-08T22:24:10.828Z,100.00
2023-03-08T22:26:44.232Z,100.00
2023-03-08T22:29:12.330Z,100.00
2023-03-08T22:31:40.914Z,100.00
2023-03-08T22:34:09.990Z,100.00
2023-03-08T22:36:38.430Z,100.00
2023-03-08T22:39:06.751Z,100.00
2023-03-08T22:41:34.517Z,100.00
2023-03-08T22:44:05.226Z,100.00
2023-03-08T22:46:35.023Z,100.00
2023-03-08T22:49:08.063Z,100.00
2023-03-08T22:51:36.772Z,100.00
2023-03-08T22:54:08.313Z,100.00
2023-03-08T22:56:37.318Z,100.00
2023-03-08T22:59:07.731Z,100.00
2023-03-08T23:01:37.221Z,100.00
2023-03-08T23:04:07.302Z,100.00
2023-03-08T23:06:36.072Z,100.00
2023-03-08T23:09:08.360Z,100.00
2023-03-08T23:11:39.591Z,100.00
2023-03-08T23:14:09.254Z,100.00
2023-03-08T23:16:44.100Z,100.00
2023-03-08T23:19:15.066Z,100.00
2023-03-08T23:21:44.947Z,100.00
2023-03-08T23:24:16.298Z,100.00
2023-03-08T23:26:46.716Z,100.00
2023-03-08T23:29:15.561Z,100.00
2023-03-08T23:31:46.202Z,100.00
2023-03-08T23:34:15.422Z,100.00
2023-03-08T23:36:43.784Z,100.00
2023-03-08T23:39:11.823Z,100.00
2023-03-08T23:41:41.272Z,100.00
2023-03-08T23:44:11.445Z,100.00
2023-03-08T23:46:48.356Z,100.00
2023-03-08T23:49:18.202Z,100.00
2023-03-08T23:51:46.609Z,100.00
2023-03-08T23:54:15.167Z,100.00
2023-03-08T23:56:43.841Z,100.00
2023-03-08T23:59:20.628Z,100.00
